Time;durP1;ratioP1;P1;durP2;ratioP2;P2;SDS_P1;SDS_P2;PMS_P1;PMS_P2;Temp;Humidity;BMP_temperature;BMP_pressure;BME280_temperature;BME280_humidity;BME280_pressure;Samples;Min_cycle;Max_cycle;Signal;HPM_P1;HPM_P2
2022/07/05 00:00:24;;;;;;;17.10;4.18;;;15.30;99.90;;;;;;4967165;28;20081;-76
2022/07/05 00:02:51;;;;;;;15.88;3.33;;;15.30;99.90;;;;;;4967523;28;20105;-72
2022/07/05 00:05:19;;;;;;;11.38;2.72;;;15.40;99.90;;;;;;4965214;28;20062;-72
2022/07/05 00:07:46;;;;;;;13.90;3.92;;;15.40;99.90;;;;;;4966060;28;20038;-67
2022/07/05 00:10:13;;;;;;;12.38;3.15;;;15.40;99.90;;;;;;4967279;28;20030;-68
2022/07/05 00:12:41;;;;;;;24.02;3.35;;;15.40;99.90;;;;;;4968064;28;20050;-68
2022/07/05 00:15:11;;;;;;;14.95;3.17;;;15.50;99.90;;;;;;4967873;28;20034;-69
2022/07/05 00:17:38;;;;;;;21.70;4.70;;;15.50;99.90;;;;;;4969312;28;20026;-75
2022/07/05 00:20:08;;;;;;;13.13;2.85;;;15.60;99.90;;;;;;4967167;28;20038;-75
2022/07/05 00:22:37;;;;;;;17.73;3.55;;;15.50;99.90;;;;;;4969102;28;20023;-73
2022/07/05 00:25:06;;;;;;;12.20;3.28;;;15.60;99.90;;;;;;4969995;28;20341;-72
2022/07/05 00:27:35;;;;;;;14.25;2.72;;;15.50;99.90;;;;;;4968417;28;20063;-80
2022/07/05 00:30:04;;;;;;;18.33;3.10;;;15.50;99.90;;;;;;4968619;28;20059;-76
2022/07/05 00:32:32;;;;;;;16.92;3.50;;;15.50;99.90;;;;;;4971710;28;20023;-73
2022/07/05 00:34:59;;;;;;;19.95;2.58;;;15.50;99.90;;;;;;4969877;28;20023;-74
2022/07/05 00:37:27;;;;;;;22.52;3.28;;;15.60;99.90;;;;;;4969324;28;20552;-71
2022/07/05 00:39:54;;;;;;;12.18;3.25;;;15.60;99.90;;;;;;4968953;28;20337;-70
2022/07/05 00:42:22;;;;;;;14.25;3.08;;;15.70;99.90;;;;;;4956559;28;20390;-66
2022/07/05 00:44:49;;;;;;;11.45;2.92;;;15.80;99.90;;;;;;4967939;28;20112;-68
2022/07/05 00:47:16;;;;;;;13.68;2.85;;;15.90;99.90;;;;;;4966926;28;20031;-66
2022/07/05 00:49:44;;;;;;;12.63;2.28;;;16.00;99.90;;;;;;4968189;28;20023;-74
2022/07/05 00:52:17;;;;;;;15.85;3.88;;;16.10;99.90;;;;;;4967533;28;20038;-71
2022/07/05 00:54:46;;;;;;;14.88;3.92;;;16.10;99.90;;;;;;4970103;28;20030;-68
2022/07/05 00:57:14;;;;;;;17.23;3.67;;;16.10;99.90;;;;;;4965857;28;20520;-66
2022/07/05 00:59:41;;;;;;;23.23;3.20;;;16.00;99.90;;;;;;4966507;28;20034;-72
2022/07/05 01:02:09;;;;;;;17.90;3.72;;;15.90;99.90;;;;;;4964739;28;20095;-71
2022/07/05 01:04:36;;;;;;;14.15;2.55;;;15.90;99.90;;;;;;4966950;28;20457;-67
2022/07/05 01:07:05;;;;;;;13.05;3.67;;;16.00;99.90;;;;;;4967676;28;20027;-66
2022/07/05 01:09:35;;;;;;;18.75;3.65;;;15.90;99.90;;;;;;4967094;28;20057;-75
2022/07/05 01:12:04;;;;;;;15.32;2.65;;;16.00;99.90;;;;;;4966880;28;20493;-74
2022/07/05 01:14:34;;;;;;;11.00;2.45;;;15.90;99.90;;;;;;4966530;28;20081;-69
2022/07/05 01:17:01;;;;;;;14.55;3.40;;;15.90;99.90;;;;;;4966380;28;20026;-68
2022/07/05 01:19:28;;;;;;;12.68;2.55;;;15.90;99.90;;;;;;4966822;28;20019;-65
2022/07/05 01:21:57;;;;;;;15.77;3.42;;;15.90;99.90;;;;;;4966306;28;20034;-67
2022/07/05 01:24:25;;;;;;;18.90;3.03;;;16.00;99.90;;;;;;4964752;28;20420;-70
2022/07/05 01:26:55;;;;;;;18.77;3.47;;;16.10;99.90;;;;;;4967301;28;20039;-65
2022/07/05 01:29:22;;;;;;;14.07;2.95;;;16.10;99.90;;;;;;4966005;28;20034;-67
2022/07/05 01:31:57;;;;;;;11.02;2.35;;;16.10;99.90;;;;;;4963388;28;20506;-69
2022/07/05 01:34:24;;;;;;;11.40;2.60;;;16.00;99.90;;;;;;4966351;28;20033;-69
2022/07/05 01:36:52;;;;;;;15.07;2.65;;;16.00;99.90;;;;;;4965375;28;20023;-73
2022/07/05 01:39:20;;;;;;;14.75;3.17;;;15.90;99.90;;;;;;4966206;28;20058;-75
2022/07/05 01:41:48;;;;;;;15.60;2.65;;;15.90;99.90;;;;;;4966416;28;20085;-79
2022/07/05 01:44:16;;;;;;;14.38;2.78;;;15.90;99.90;;;;;;4965527;28;20102;-77
2022/07/05 01:46:44;;;;;;;18.05;3.35;;;15.80;99.90;;;;;;4965623;28;20019;-69
2022/07/05 01:49:18;;;;;;;11.32;2.38;;;15.80;99.90;;;;;;4959115;28;20605;-70
2022/07/05 01:52:02;;;;;;;14.95;3.35;;;15.80;99.90;;;;;;4963796;28;20031;-69
2022/07/05 01:54:30;;;;;;;20.52;3.20;;;15.90;99.90;;;;;;4966759;28;20027;-69
2022/07/05 01:57:07;;;;;;;14.68;3.30;;;15.90;99.90;;;;;;5074272;27;20441;-65
2022/07/05 01:59:35;;;;;;;16.33;3.13;;;16.00;99.90;;;;;;5029811;28;20071;-67
2022/07/05 02:02:04;;;;;;;18.55;3.28;;;16.00;99.90;;;;;;5019939;28;20022;-66
2022/07/05 02:04:32;;;;;;;12.18;2.90;;;16.00;99.90;;;;;;5020595;28;20471;-68
2022/07/05 02:06:59;;;;;;;13.20;2.47;;;16.10;99.90;;;;;;5027516;28;20037;-72
2022/07/05 02:09:27;;;;;;;20.83;3.85;;;16.10;99.90;;;;;;5024349;28;20030;-70
2022/07/05 02:11:54;;;;;;;9.25;2.40;;;16.20;99.90;;;;;;5019474;28;20931;-69
2022/07/05 02:14:21;;;;;;;8.57;2.50;;;16.20;99.90;;;;;;5020375;28;20057;-73
2022/07/05 02:16:49;;;;;;;10.82;2.35;;;16.30;99.90;;;;;;5020332;28;20101;-74
2022/07/05 02:19:16;;;;;;;16.13;3.13;;;16.40;99.90;;;;;;5020423;28;20026;-75
2022/07/05 02:21:43;;;;;;;18.52;3.95;;;16.40;99.90;;;;;;5019709;28;20034;-74
2022/07/05 02:24:11;;;;;;;13.80;3.50;;;16.40;99.90;;;;;;5024442;28;20030;-77
2022/07/05 02:26:38;;;;;;;16.08;4.22;;;16.40;99.90;;;;;;5021225;28;20014;-70
2022/07/05 02:29:05;;;;;;;15.13;3.97;;;16.50;99.90;;;;;;5020046;28;20030;-70
2022/07/05 02:31:33;;;;;;;15.95;2.88;;;16.50;99.90;;;;;;5023069;28;20529;-73
2022/07/05 02:34:00;;;;;;;15.18;3.40;;;16.60;99.90;;;;;;5031107;28;20045;-68
2022/07/05 02:36:27;;;;;;;10.75;2.38;;;16.60;99.90;;;;;;5018066;28;20441;-72
2022/07/05 02:38:56;;;;;;;14.13;2.50;;;16.50;99.90;;;;;;5018828;28;20152;-72
2022/07/05 02:41:23;;;;;;;19.52;4.18;;;16.50;99.90;;;;;;5017833;28;20045;-69
2022/07/05 02:43:52;;;;;;;15.80;3.33;;;16.50;99.90;;;;;;5018476;28;20018;-67
2022/07/05 02:46:19;;;;;;;16.13;2.42;;;16.40;99.90;;;;;;5017907;28;20052;-67
2022/07/05 02:48:46;;;;;;;7.13;1.60;;;16.30;99.90;;;;;;5018510;28;20013;-68
2022/07/05 02:51:16;;;;;;;9.60;1.70;;;16.30;99.90;;;;;;5017857;28;20032;-68
2022/07/05 02:53:43;;;;;;;14.13;2.30;;;16.30;99.90;;;;;;5020016;28;20014;-67
2022/07/05 02:56:10;;;;;;;9.73;2.10;;;16.30;99.90;;;;;;5019437;28;20045;-69
2022/07/05 02:58:38;;;;;;;13.85;2.25;;;16.30;99.90;;;;;;5017093;28;20026;-71
2022/07/05 03:01:06;;;;;;;9.02;2.17;;;16.30;99.90;;;;;;5018043;28;20029;-66
2022/07/05 03:03:33;;;;;;;18.73;2.88;;;16.20;99.90;;;;;;5017758;28;20021;-72
2022/07/05 03:06:00;;;;;;;7.53;1.83;;;16.20;99.90;;;;;;5018918;28;20471;-74
2022/07/05 03:08:28;;;;;;;17.02;3.45;;;16.20;99.90;;;;;;5007327;28;20032;-66
2022/07/05 03:10:55;;;;;;;13.15;2.28;;;16.20;99.90;;;;;;5004586;28;20025;-73
2022/07/05 03:13:22;;;;;;;9.80;1.75;;;16.30;99.90;;;;;;5005547;28;20581;-67
2022/07/05 03:15:50;;;;;;;10.50;2.47;;;16.20;99.90;;;;;;5005748;28;20506;-66
2022/07/05 03:18:17;;;;;;;14.18;2.53;;;16.20;99.90;;;;;;5007069;28;20153;-67
2022/07/05 03:20:44;;;;;;;10.90;2.13;;;16.30;99.90;;;;;;5008044;28;20022;-71
2022/07/05 03:23:12;;;;;;;13.80;2.42;;;16.30;99.90;;;;;;5006988;28;20056;-73
2022/07/05 03:25:39;;;;;;;12.48;2.22;;;16.30;99.90;;;;;;5006541;28;20028;-65
2022/07/05 03:28:06;;;;;;;15.02;3.80;;;16.40;99.90;;;;;;5006162;28;20033;-71
2022/07/05 03:30:34;;;;;;;11.43;2.38;;;16.40;99.90;;;;;;5005121;28;20033;-69
2022/07/05 03:33:01;;;;;;;9.35;1.80;;;16.40;99.90;;;;;;5006370;28;20022;-68
2022/07/05 03:35:29;;;;;;;12.07;2.42;;;16.40;99.90;;;;;;5005971;28;20570;-67
2022/07/05 03:37:56;;;;;;;10.75;2.00;;;16.50;99.90;;;;;;5002681;28;20041;-70
2022/07/05 03:40:24;;;;;;;6.22;2.20;;;16.50;99.90;;;;;;5004397;28;20026;-69
2022/07/05 03:42:51;;;;;;;10.45;2.05;;;16.50;99.90;;;;;;4999059;28;20034;-71
2022/07/05 03:45:18;;;;;;;12.68;1.75;;;16.50;99.90;;;;;;4995180;28;20045;-71
2022/07/05 03:47:46;;;;;;;9.15;1.77;;;16.60;99.90;;;;;;5005784;28;20168;-69
2022/07/05 03:50:13;;;;;;;11.85;2.17;;;16.60;99.90;;;;;;5006215;28;20021;-68
2022/07/05 03:52:40;;;;;;;8.18;1.75;;;16.60;99.90;;;;;;5005664;28;20104;-70
2022/07/05 03:55:08;;;;;;;9.93;1.63;;;16.50;99.90;;;;;;5021810;28;20135;-75
2022/07/05 03:57:37;;;;;;;9.07;1.77;;;16.60;99.90;;;;;;5014121;28;20430;-73
2022/07/05 04:00:05;;;;;;;8.32;2.58;;;16.50;99.90;;;;;;5004985;28;20033;-69
2022/07/05 04:02:32;;;;;;;8.57;1.98;;;16.50;99.90;;;;;;4994185;28;20025;-74
2022/07/05 04:04:59;;;;;;;10.10;2.20;;;16.40;99.90;;;;;;5004146;28;20092;-68
2022/07/05 04:07:27;;;;;;;12.63;2.45;;;16.50;99.90;;;;;;5002432;28;20033;-72
2022/07/05 04:09:54;;;;;;;8.63;1.83;;;16.40;99.90;;;;;;5002881;28;20064;-68
2022/07/05 04:12:21;;;;;;;11.27;1.58;;;16.40;99.90;;;;;;4990864;28;20026;-66
2022/07/05 04:14:49;;;;;;;5.07;1.50;;;16.40;99.90;;;;;;5014636;28;20018;-68
2022/07/05 04:17:16;;;;;;;9.98;2.15;;;16.30;99.90;;;;;;5004032;28;20064;-69
2022/07/05 04:19:44;;;;;;;9.77;1.60;;;16.20;99.90;;;;;;5002520;28;20030;-87
2022/07/05 04:22:12;;;;;;;10.40;1.95;;;16.00;99.90;;;;;;5007160;28;20042;-82
2022/07/05 04:27:27;;;;;;;12.40;2.78;;;15.80;99.90;;;;;;4990947;28;20064;-80
2022/07/05 04:29:57;;;;;;;9.77;2.60;;;15.80;99.90;;;;;;4987334;28;20026;-73
2022/07/05 04:32:24;;;;;;;14.82;1.92;;;15.80;99.90;;;;;;5020465;28;20072;-72
2022/07/05 04:34:52;;;;;;;16.08;3.10;;;15.80;99.90;;;;;;5024499;28;20055;-75
2022/07/05 04:37:19;;;;;;;10.85;2.10;;;15.90;99.90;;;;;;5004832;28;20022;-70
2022/07/05 04:39:46;;;;;;;12.10;3.92;;;16.00;99.90;;;;;;5008868;28;20063;-72
2022/07/05 04:42:13;;;;;;;13.40;2.92;;;16.10;99.90;;;;;;5004550;28;20032;-73
2022/07/05 04:44:41;;;;;;;11.38;2.53;;;16.20;99.90;;;;;;5024772;28;20471;-67
2022/07/05 04:47:08;;;;;;;12.38;2.55;;;16.30;99.90;;;;;;5011999;28;20022;-72
2022/07/05 04:49:35;;;;;;;12.55;4.20;;;16.40;99.90;;;;;;5003980;28;20451;-68
2022/07/05 04:52:03;;;;;;;11.82;2.53;;;16.40;99.90;;;;;;5005536;28;20105;-69
2022/07/05 04:54:30;;;;;;;18.17;2.80;;;16.40;99.90;;;;;;5004825;28;20112;-70
2022/07/05 04:56:57;;;;;;;12.25;2.15;;;16.40;99.90;;;;;;5004452;28;20049;-77
2022/07/05 04:59:25;;;;;;;13.80;3.40;;;16.30;99.90;;;;;;5003634;28;20030;-67
2022/07/05 05:01:52;;;;;;;11.00;2.20;;;16.30;99.90;;;;;;5003569;28;20036;-67
2022/07/05 05:04:19;;;;;;;13.07;2.38;;;16.40;99.90;;;;;;5004032;28;20026;-69
2022/07/05 05:06:47;;;;;;;15.18;3.00;;;16.30;99.90;;;;;;5010623;28;20049;-67
2022/07/05 05:09:14;;;;;;;13.85;2.03;;;16.30;99.90;;;;;;5003850;28;20076;-70
2022/07/05 05:11:41;;;;;;;16.27;2.67;;;16.20;99.90;;;;;;5002921;28;20053;-67
2022/07/05 05:14:09;;;;;;;16.58;3.03;;;16.20;99.90;;;;;;5011351;28;20026;-67
2022/07/05 05:16:36;;;;;;;13.07;2.13;;;16.10;99.90;;;;;;5003944;28;20704;-68
2022/07/05 05:19:04;;;;;;;19.30;3.30;;;16.10;99.90;;;;;;4998895;28;20022;-68
2022/07/05 05:21:31;;;;;;;20.50;3.10;;;16.10;99.90;;;;;;5002218;28;20466;-67
2022/07/05 05:23:58;;;;;;;10.63;2.50;;;16.20;99.90;;;;;;5003428;28;20528;-70
2022/07/05 05:26:26;;;;;;;15.20;3.80;;;16.20;99.90;;;;;;5003315;28;20025;-66
2022/07/05 05:28:53;;;;;;;13.88;2.50;;;16.20;99.90;;;;;;4999221;28;20029;-66
2022/07/05 05:31:21;;;;;;;18.85;3.30;;;16.10;99.90;;;;;;5001133;28;20024;-68
2022/07/05 05:33:48;;;;;;;15.52;3.95;;;16.00;99.90;;;;;;5002437;28;20056;-70
2022/07/05 05:36:15;;;;;;;12.75;2.15;;;16.10;99.90;;;;;;5001689;28;20054;-66
2022/07/05 05:38:43;;;;;;;15.85;2.33;;;16.10;99.90;;;;;;5005072;28;20041;-66
2022/07/05 05:41:10;;;;;;;16.25;3.05;;;16.10;99.90;;;;;;5001780;28;20026;-75
2022/07/05 05:43:37;;;;;;;13.23;2.38;;;16.00;99.90;;;;;;5008947;28;20028;-67
2022/07/05 05:46:05;;;;;;;16.50;2.67;;;16.00;99.90;;;;;;5023485;28;20053;-69
2022/07/05 05:48:32;;;;;;;13.18;2.88;;;15.90;99.90;;;;;;5005982;28;20022;-67
2022/07/05 05:51:00;;;;;;;14.85;2.33;;;16.00;99.90;;;;;;5002716;28;20064;-67
2022/07/05 05:53:28;;;;;;;13.55;3.10;;;15.90;99.90;;;;;;4998342;28;20537;-67
2022/07/05 05:55:55;;;;;;;13.52;2.15;;;16.00;99.90;;;;;;5003257;28;20050;-68
2022/07/05 05:58:24;;;;;;;11.80;1.77;;;15.90;99.90;;;;;;5002085;28;20593;-67
2022/07/05 06:00:52;;;;;;;12.05;3.15;;;15.90;99.90;;;;;;4981765;28;20031;-67
2022/07/05 06:03:21;;;;;;;11.02;2.38;;;15.90;99.90;;;;;;5003194;28;20037;-68
2022/07/05 06:05:48;;;;;;;16.65;2.30;;;16.00;99.90;;;;;;5021640;28;20024;-67
2022/07/05 06:08:16;;;;;;;11.90;3.67;;;16.00;99.90;;;;;;5020886;28;20064;-68
2022/07/05 06:10:43;;;;;;;17.00;2.28;;;16.00;99.90;;;;;;5009263;28;20036;-68
2022/07/05 06:13:13;;;;;;;10.85;2.20;;;16.00;99.90;;;;;;5003322;28;20129;-70
2022/07/05 06:15:41;;;;;;;12.48;2.30;;;16.00;99.90;;;;;;5018314;28;20038;-69
2022/07/05 06:18:10;;;;;;;14.73;2.67;;;16.00;99.90;;;;;;5005067;28;20022;-66
2022/07/05 06:20:38;;;;;;;11.88;2.65;;;16.10;99.90;;;;;;5003532;28;20025;-68
2022/07/05 06:23:07;;;;;;;12.38;2.70;;;16.10;99.90;;;;;;5004889;28;20030;-69
2022/07/05 06:25:36;;;;;;;18.98;2.60;;;16.10;99.90;;;;;;5003966;28;20479;-67
2022/07/05 06:28:06;;;;;;;15.15;2.75;;;16.10;99.90;;;;;;5003909;28;20665;-68
2022/07/05 06:30:35;;;;;;;14.15;3.13;;;16.10;99.90;;;;;;5015106;28;20045;-70
2022/07/05 06:33:05;;;;;;;10.60;2.92;;;16.10;99.90;;;;;;5011783;28;20030;-68
2022/07/05 06:35:33;;;;;;;17.88;2.72;;;16.20;99.90;;;;;;5004376;28;20394;-69
2022/07/05 06:38:10;;;;;;;18.10;3.30;;;16.10;99.90;;;;;;5006038;28;20018;-69
2022/07/05 06:40:41;;;;;;;17.30;3.45;;;16.10;99.90;;;;;;5011193;28;20014;-75
2022/07/05 06:43:11;;;;;;;19.13;3.08;;;16.10;99.90;;;;;;5007081;28;20064;-77
2022/07/05 06:45:39;;;;;;;16.33;3.42;;;16.10;99.90;;;;;;5020163;28;20034;-67
2022/07/05 06:48:08;;;;;;;19.13;3.20;;;16.00;99.90;;;;;;5008078;28;20028;-72
2022/07/05 06:50:37;;;;;;;15.30;3.30;;;15.90;99.90;;;;;;5025443;28;20054;-69
2022/07/05 06:53:06;;;;;;;14.90;3.05;;;15.90;99.90;;;;;;5025313;28;20033;-67
2022/07/05 06:55:34;;;;;;;14.30;4.40;;;15.80;99.90;;;;;;5024062;28;20096;-72
2022/07/05 06:58:05;;;;;;;14.05;2.15;;;15.90;99.90;;;;;;5007611;28;20042;-68
2022/07/05 07:00:33;;;;;;;13.60;2.45;;;15.90;99.90;;;;;;5017090;28;20520;-69
2022/07/05 07:03:01;;;;;;;12.48;2.67;;;15.90;99.90;;;;;;5026660;28;20045;-67
2022/07/05 07:05:28;;;;;;;13.90;2.85;;;15.90;99.90;;;;;;5027039;28;20098;-68
2022/07/05 07:10:41;;;;;;;9.45;2.47;;;16.00;99.90;;;;;;5023680;28;20083;-69
2022/07/05 07:13:08;;;;;;;18.42;3.58;;;16.00;99.90;;;;;;5026628;28;20021;-68
2022/07/05 07:15:37;;;;;;;11.93;2.40;;;16.00;99.90;;;;;;4999233;28;20083;-69
2022/07/05 07:18:05;;;;;;;13.63;2.85;;;16.00;99.90;;;;;;5003275;28;20076;-70
2022/07/05 07:20:32;;;;;;;13.35;2.25;;;16.00;99.90;;;;;;5006303;28;20009;-68
2022/07/05 07:22:59;;;;;;;12.45;2.58;;;16.00;99.90;;;;;;5007653;28;20296;-68
2022/07/05 07:25:27;;;;;;;9.55;2.50;;;16.00;99.90;;;;;;5006461;28;20033;-68
2022/07/05 07:27:56;;;;;;;10.07;2.03;;;16.00;99.90;;;;;;5007516;28;20033;-76
2022/07/05 07:30:26;;;;;;;14.57;2.45;;;16.10;99.90;;;;;;5004983;28;20042;-74
2022/07/05 07:32:54;;;;;;;10.95;2.45;;;16.10;99.90;;;;;;5003086;28;20030;-68
2022/07/05 07:35:22;;;;;;;10.32;2.20;;;16.00;99.90;;;;;;5006523;28;20128;-72
2022/07/05 07:37:50;;;;;;;9.73;2.35;;;16.00;99.90;;;;;;5003701;28;20033;-74
2022/07/05 07:40:18;;;;;;;12.18;3.40;;;16.00;99.90;;;;;;5003720;28;20542;-69
2022/07/05 07:42:45;;;;;;;10.00;2.40;;;16.00;99.90;;;;;;5007371;28;20117;-70
2022/07/05 07:45:12;;;;;;;13.70;2.50;;;16.00;99.90;;;;;;5006889;28;20044;-73
2022/07/05 07:47:40;;;;;;;16.52;3.20;;;16.00;99.90;;;;;;5004960;28;20033;-67
2022/07/05 07:50:07;;;;;;;18.58;3.22;;;16.10;99.90;;;;;;5003089;28;20028;-68
2022/07/05 07:52:36;;;;;;;11.75;2.30;;;16.10;99.90;;;;;;5005241;28;20029;-69
2022/07/05 07:55:05;;;;;;;10.80;3.10;;;16.10;99.90;;;;;;5005138;28;20058;-70
2022/07/05 07:57:36;;;;;;;10.40;1.95;;;16.00;99.90;;;;;;5006308;28;20525;-79
2022/07/05 08:00:05;;;;;;;15.00;2.60;;;16.00;99.90;;;;;;5007445;28;20038;-78
2022/07/05 08:02:32;;;;;;;10.40;1.80;;;16.00;99.90;;;;;;5005067;28;20840;-70
2022/07/05 08:05:00;;;;;;;16.90;2.05;;;16.10;99.90;;;;;;5006830;28;20056;-71
2022/07/05 08:07:27;;;;;;;9.55;2.30;;;16.10;99.90;;;;;;5005344;28;20053;-68
2022/07/05 08:09:54;;;;;;;10.68;1.95;;;16.10;99.90;;;;;;5008090;28;20488;-70
2022/07/05 08:12:22;;;;;;;7.00;1.50;;;16.00;99.90;;;;;;5005600;28;20049;-72
2022/07/05 08:14:49;;;;;;;9.82;2.13;;;16.00;99.90;;;;;;5001930;28;20018;-72
2022/07/05 08:17:16;;;;;;;11.57;2.13;;;15.90;99.90;;;;;;5006699;28;20033;-69
2022/07/05 08:22:32;;;;;;;14.30;4.95;;;16.00;99.90;;;;;;5002974;28;20037;-67
2022/07/05 08:25:00;;;;;;;16.45;3.10;;;15.90;99.90;;;;;;5004946;28;20029;-67
2022/07/05 08:27:27;;;;;;;12.90;2.40;;;15.80;99.90;;;;;;5004401;28;20068;-71
2022/07/05 08:29:54;;;;;;;10.82;2.20;;;15.60;99.90;;;;;;5001834;28;20025;-66
2022/07/05 08:32:22;;;;;;;10.65;2.17;;;15.50;99.90;;;;;;5004707;28;20033;-64
2022/07/05 08:34:50;;;;;;;15.35;4.35;;;15.40;99.90;;;;;;5004306;28;20013;-71
2022/07/05 08:37:17;;;;;;;15.05;2.05;;;15.30;99.90;;;;;;5003651;28;20092;-67
2022/07/05 08:39:44;;;;;;;15.32;3.03;;;15.30;99.90;;;;;;5005148;28;20104;-67
2022/07/05 08:42:12;;;;;;;20.50;4.32;;;15.30;99.90;;;;;;5005393;28;20025;-66
2022/07/05 08:44:41;;;;;;;12.70;2.60;;;15.30;99.90;;;;;;5004477;28;20026;-67
2022/07/05 08:47:11;;;;;;;13.73;2.45;;;15.30;99.90;;;;;;5005328;28;20050;-68
2022/07/05 08:49:42;;;;;;;12.38;3.38;;;15.30;99.90;;;;;;5019931;28;20402;-66
2022/07/05 08:52:13;;;;;;;13.27;2.58;;;15.40;99.90;;;;;;5005754;28;20022;-67
2022/07/05 08:54:41;;;;;;;12.73;2.70;;;15.30;99.90;;;;;;5020557;28;20046;-70
2022/07/05 08:57:08;;;;;;;17.20;2.85;;;15.30;99.90;;;;;;5004033;28;20068;-68
2022/07/05 08:59:36;;;;;;;17.60;3.15;;;15.40;99.90;;;;;;5038703;28;20051;-65
2022/07/05 09:02:04;;;;;;;16.25;4.85;;;15.40;99.90;;;;;;5009143;28;20036;-66
2022/07/05 09:04:40;;;;;;;16.25;3.17;;;15.40;99.90;;;;;;5003850;28;20026;-64
2022/07/05 09:07:09;;;;;;;12.90;3.28;;;15.50;99.90;;;;;;5004015;28;20017;-66
2022/07/05 09:09:42;;;;;;;12.75;2.67;;;15.40;99.90;;;;;;5004404;28;20680;-67
2022/07/05 09:12:12;;;;;;;11.13;2.45;;;15.50;99.90;;;;;;5005764;28;20030;-67
2022/07/05 09:14:39;;;;;;;16.52;3.17;;;15.50;99.90;;;;;;5004717;28;20054;-66
2022/07/05 09:17:07;;;;;;;11.10;2.30;;;15.50;99.90;;;;;;5000817;28;20049;-66
2022/07/05 09:19:37;;;;;;;13.98;2.35;;;15.40;99.90;;;;;;5003458;28;20022;-65
2022/07/05 09:22:05;;;;;;;9.55;2.40;;;15.40;99.90;;;;;;5005294;28;20152;-65
2022/07/05 09:24:42;;;;;;;10.68;3.22;;;15.40;99.90;;;;;;5004418;28;20026;-66
2022/07/05 09:27:09;;;;;;;12.00;2.97;;;15.40;99.90;;;;;;5006225;28;20179;-65
2022/07/05 09:29:37;;;;;;;12.52;2.55;;;15.50;99.90;;;;;;5004858;28;20104;-65
2022/07/05 09:32:05;;;;;;;15.43;3.22;;;15.50;99.90;;;;;;5004465;28;20029;-68
2022/07/05 09:34:34;;;;;;;16.00;2.13;;;15.50;99.90;;;;;;5006867;28;20164;-64
2022/07/05 09:37:03;;;;;;;15.23;3.10;;;15.60;99.90;;;;;;5004238;28;20046;-66
2022/07/05 09:39:30;;;;;;;11.68;3.10;;;15.60;99.90;;;;;;5005365;28;20376;-64
2022/07/05 09:42:22;;;;;;;12.52;2.58;;;15.70;99.90;;;;;;5007185;28;20029;-66
2022/07/05 09:44:55;;;;;;;10.35;1.85;;;15.70;99.90;;;;;;5007544;28;20495;-70
2022/07/05 09:47:23;;;;;;;12.93;2.72;;;15.70;99.90;;;;;;5004379;28;20398;-69
2022/07/05 09:49:53;;;;;;;18.90;2.97;;;15.60;99.90;;;;;;5035142;28;20026;-66
2022/07/05 09:52:28;;;;;;;13.85;3.00;;;15.70;99.90;;;;;;5006884;28;20024;-67
2022/07/05 09:55:09;;;;;;;19.88;5.43;;;15.70;99.90;;;;;;5006870;28;20080;-69
2022/07/05 09:57:40;;;;;;;14.00;3.42;;;15.80;99.90;;;;;;5004163;28;20033;-68
2022/07/05 10:00:19;;;;;;;10.63;3.37;;;15.70;99.90;;;;;;5005048;28;20356;-67
2022/07/05 10:02:52;;;;;;;15.23;2.30;;;15.70;99.90;;;;;;5003246;28;20029;-68
2022/07/05 10:05:21;;;;;;;17.10;3.15;;;15.70;99.90;;;;;;5005367;28;20364;-68
2022/07/05 10:07:51;;;;;;;16.02;3.80;;;15.80;99.90;;;;;;5010471;28;20482;-66
2022/07/05 10:10:20;;;;;;;15.50;4.90;;;15.80;99.90;;;;;;5013497;28;20487;-67
2022/07/05 10:12:50;;;;;;;19.02;3.42;;;15.80;99.90;;;;;;5004318;28;20037;-66
2022/07/05 10:15:22;;;;;;;15.30;3.50;;;15.80;99.90;;;;;;5004593;28;20517;-66
2022/07/05 10:17:54;;;;;;;;;;;15.80;99.90;;;;;;5006766;28;20467;-64
2022/07/05 10:20:40;;;;;;;22.95;2.97;;;15.80;99.90;;;;;;5015250;28;19930;-65
2022/07/05 10:23:18;;;;;;;13.18;3.17;;;15.80;99.90;;;;;;5001548;28;20048;-68
2022/07/05 10:25:48;;;;;;;14.85;3.38;;;15.80;99.90;;;;;;5012934;28;20168;-70
2022/07/05 10:28:17;;;;;;;15.50;3.08;;;15.80;99.90;;;;;;5007785;28;20026;-64
2022/07/05 10:30:52;;;;;;;9.75;3.22;;;15.80;99.90;;;;;;5007451;28;20022;-70
2022/07/05 10:33:27;;;;;;;13.15;3.75;;;15.80;99.90;;;;;;5007330;28;20026;-65
2022/07/05 10:35:57;;;;;;;17.50;3.90;;;15.90;99.90;;;;;;5007475;28;20030;-64
2022/07/05 10:38:25;;;;;;;14.23;2.63;;;15.90;99.90;;;;;;5007591;28;20041;-71
2022/07/05 10:40:56;;;;;;;11.45;2.47;;;15.80;99.90;;;;;;5007976;28;20036;-67
2022/07/05 10:43:24;;;;;;;18.90;3.00;;;15.80;99.90;;;;;;5007504;28;20519;-66
2022/07/05 10:45:53;;;;;;;17.05;3.30;;;15.80;99.90;;;;;;5024559;28;20033;-62
2022/07/05 10:48:23;;;;;;;12.30;2.60;;;15.80;99.90;;;;;;5009483;28;20030;-64
2022/07/05 10:50:58;;;;;;;21.52;3.20;;;15.80;99.90;;;;;;5016539;28;20029;-63
2022/07/05 10:53:48;;;;;;;13.68;3.40;;;15.80;99.90;;;;;;5023100;28;20157;-64
2022/07/05 10:56:15;;;;;;;13.55;2.47;;;15.80;99.90;;;;;;5018391;28;20041;-64
2022/07/05 10:58:47;;;;;;;11.23;1.83;;;15.80;99.90;;;;;;5027042;28;20021;-65
2022/07/05 11:01:20;;;;;;;8.02;2.28;;;15.80;99.90;;;;;;5026534;28;20053;-69
2022/07/05 11:03:58;;;;;;;17.50;2.75;;;15.80;99.90;;;;;;5019019;28;20021;-64
2022/07/05 11:06:27;;;;;;;15.48;2.20;;;15.80;99.90;;;;;;5007426;28;20499;-63
2022/07/05 11:09:02;;;;;;;13.88;3.03;;;15.80;99.90;;;;;;5007412;28;20026;-62
2022/07/05 11:11:33;;;;;;;16.17;2.70;;;15.80;99.90;;;;;;5007314;28;20026;-64
2022/07/05 11:14:03;;;;;;;23.58;3.60;;;15.80;99.90;;;;;;5015746;28;20065;-64
2022/07/05 11:16:35;;;;;;;18.88;3.20;;;15.80;99.90;;;;;;5006939;28;20104;-65
2022/07/05 11:19:06;;;;;;;;;;;15.80;99.90;;;;;;5007117;28;20014;-66
2022/07/05 11:21:34;;;;;;;9.18;2.03;;;15.80;99.90;;;;;;5012678;28;20391;-68
2022/07/05 11:24:22;;;;;;;21.15;5.32;;;15.70;99.90;;;;;;5017019;28;20398;-65
2022/07/05 11:26:54;;;;;;;15.52;2.60;;;15.80;99.90;;;;;;5007121;28;20160;-62
2022/07/05 11:29:53;;;;;;;20.08;3.05;;;15.80;99.90;;;;;;5026004;28;20104;-69
2022/07/05 11:32:20;;;;;;;15.18;3.00;;;15.80;99.90;;;;;;5026678;28;20029;-68
2022/07/05 11:34:53;;;;;;;17.05;3.33;;;15.80;99.90;;;;;;5010727;28;20425;-61
2022/07/05 11:37:28;;;;;;;10.40;2.33;;;15.80;99.90;;;;;;5012405;28;20135;-64
2022/07/05 11:40:07;;;;;;;16.55;2.83;;;15.80;99.90;;;;;;5019762;28;20537;-63
2022/07/05 11:42:37;;;;;;;16.63;2.95;;;15.80;99.90;;;;;;5038944;28;20037;-66
2022/07/05 11:45:06;;;;;;;19.77;3.60;;;15.80;99.90;;;;;;5018436;28;20033;-64
2022/07/05 11:47:35;;;;;;;18.27;2.72;;;15.80;99.90;;;;;;5010092;28;20447;-64
2022/07/05 11:50:03;;;;;;;15.77;3.03;;;15.80;99.90;;;;;;5005755;28;20043;-61
2022/07/05 11:52:32;;;;;;;14.15;2.95;;;15.80;99.90;;;;;;5006075;28;20026;-70
2022/07/05 11:55:06;;;;;;;15.13;2.60;;;15.80;99.90;;;;;;5004199;28;20508;-63
2022/07/05 11:57:34;;;;;;;9.57;2.17;;;15.80;99.90;;;;;;5004934;28;20033;-67
2022/07/05 12:00:02;;;;;;;14.73;3.80;;;15.80;99.90;;;;;;5004985;28;20014;-69
2022/07/05 12:02:29;;;;;;;21.52;2.90;;;15.70;99.90;;;;;;5018642;28;20064;-68
2022/07/05 12:04:58;;;;;;;11.88;2.05;;;15.80;99.90;;;;;;5006975;28;20030;-64
2022/07/05 12:07:35;;;;;;;10.48;2.45;;;15.70;99.90;;;;;;5016671;28;20029;-65
2022/07/05 12:12:50;;;;;;;13.88;2.67;;;15.70;99.90;;;;;;4986827;28;20446;-63
2022/07/05 12:15:20;;;;;;;20.17;3.40;;;15.60;99.90;;;;;;4994548;28;20022;-65
2022/07/05 12:17:49;;;;;;;14.27;2.08;;;15.50;99.90;;;;;;5006809;28;20038;-63
2022/07/05 12:20:23;;;;;;;13.85;2.25;;;15.60;99.90;;;;;;5022826;28;20021;-68
2022/07/05 12:22:51;;;;;;;17.23;3.63;;;15.50;99.90;;;;;;5026341;28;20018;-66
2022/07/05 12:25:21;;;;;;;11.70;2.75;;;15.50;99.90;;;;;;5025456;28;20026;-63
2022/07/05 12:27:50;;;;;;;12.45;2.08;;;15.40;99.90;;;;;;5009397;28;20076;-63
2022/07/05 12:30:18;;;;;;;8.98;2.03;;;15.40;99.90;;;;;;5005159;28;20383;-65
2022/07/05 12:32:59;;;;;;;12.50;2.15;;;15.40;99.90;;;;;;5006311;28;20018;-65
2022/07/05 12:35:40;;;;;;;9.93;1.88;;;15.40;99.90;;;;;;5006926;28;20655;-70
2022/07/05 12:38:18;;;;;;;13.25;2.63;;;15.40;99.90;;;;;;5006503;28;20450;-64
2022/07/05 12:40:57;;;;;;;13.98;1.95;;;15.40;99.90;;;;;;5004847;28;20033;-63
2022/07/05 12:43:25;;;;;;;16.55;2.88;;;15.40;99.90;;;;;;5004251;28;20136;-62
2022/07/05 12:46:03;;;;;;;17.77;3.85;;;15.40;99.90;;;;;;5005138;28;20018;-63
2022/07/05 12:48:35;;;;;;;12.48;1.67;;;15.50;99.90;;;;;;5005528;28;20109;-63
2022/07/05 12:51:05;;;;;;;10.60;2.05;;;15.40;99.90;;;;;;5024493;28;20029;-64
2022/07/05 12:59:12;;;;;;;10.35;1.70;;;15.20;99.90;;;;;;5025577;28;20037;-61
2022/07/05 13:01:43;;;;;;;11.90;2.20;;;15.20;99.90;;;;;;5017047;28;20025;-63
2022/07/05 13:04:18;;;;;;;11.68;2.13;;;15.10;99.90;;;;;;5011744;28;20057;-62